createdAt,value
2017-09-10T00:02:18.336Z,7.20
2017-09-10T00:04:46.199Z,6.72
2017-09-10T00:07:14.064Z,8.05
2017-09-10T00:09:41.926Z,6.45
2017-09-10T00:12:09.793Z,9.77
2017-09-10T00:14:37.553Z,6.68
2017-09-10T00:17:05.418Z,8.18
2017-09-10T00:19:33.281Z,8.55
2017-09-10T00:22:01.349Z,8.05
2017-09-10T00:24:30.135Z,6.75
2017-09-10T00:26:58.000Z,7.47
2017-09-10T00:29:25.863Z,10.52
2017-09-10T00:31:53.726Z,9.10
2017-09-10T00:34:21.589Z,10.25
2017-09-10T00:36:49.351Z,7.55
2017-09-10T00:39:17.179Z,12.27
2017-09-10T00:41:45.080Z,8.13
2017-09-10T00:44:12.908Z,11.52
2017-09-10T00:46:40.809Z,9.77
2017-09-10T00:49:08.672Z,10.70
2017-09-10T00:51:36.537Z,10.70
2017-09-10T00:54:04.399Z,10.70
2017-09-10T00:56:32.263Z,11.18
2017-09-10T00:59:00.127Z,9.40
2017-09-10T01:01:27.992Z,9.52
2017-09-10T01:03:55.855Z,12.43
2017-09-10T01:06:23.720Z,9.95
2017-09-10T01:08:51.480Z,9.35
2017-09-10T01:11:19.345Z,10.95
2017-09-10T01:13:47.209Z,13.13
2017-09-10T01:16:14.931Z,8.70
2017-09-10T01:18:42.835Z,11.15
2017-09-10T01:21:10.699Z,12.40
2017-09-10T01:23:38.564Z,10.15
2017-09-10T01:26:06.426Z,10.32
2017-09-10T01:28:34.289Z,9.55
2017-09-10T01:31:02.153Z,10.52
2017-09-10T01:33:30.018Z,13.30
2017-09-10T01:35:57.885Z,10.55
2017-09-10T01:38:25.745Z,9.05
2017-09-10T01:40:53.508Z,9.07
2017-09-10T01:43:21.372Z,11.50
2017-09-10T01:45:49.234Z,11.00
2017-09-10T01:48:17.098Z,12.02
2017-09-10T01:50:45.140Z,14.07
2017-09-10T01:53:12.890Z,10.38
2017-09-10T01:55:40.794Z,11.60
2017-09-10T01:58:08.656Z,11.32
2017-09-10T02:00:36.521Z,13.45
2017-09-10T02:03:04.385Z,9.30
2017-09-10T02:05:32.253Z,10.55
2017-09-10T02:08:00.112Z,9.32
2017-09-10T02:10:27.989Z,9.10
2017-09-10T02:12:56.660Z,15.43
2017-09-10T02:15:24.527Z,11.02
2017-09-10T02:17:52.391Z,9.38
2017-09-10T02:20:20.252Z,10.85
2017-09-10T02:22:48.114Z,14.30
2017-09-10T02:25:15.980Z,13.57
2017-09-10T02:27:43.843Z,9.50
2017-09-10T02:30:11.707Z,8.38
2017-09-10T02:32:39.571Z,11.45
2017-09-10T02:35:07.433Z,11.48
2017-09-10T02:37:35.300Z,10.07
2017-09-10T02:40:03.162Z,9.90
2017-09-10T02:42:31.027Z,9.77
2017-09-10T02:44:58.851Z,7.47
2017-09-10T02:47:26.652Z,9.40
2017-09-10T02:49:54.516Z,8.93
2017-09-10T02:52:22.380Z,11.10
2017-09-10T02:54:50.245Z,9.75
2017-09-10T02:57:18.107Z,12.35
2017-09-10T02:59:45.971Z,8.90
2017-09-10T03:02:13.836Z,10.15
2017-09-10T03:04:41.700Z,10.20
2017-09-10T03:07:09.461Z,10.25
2017-09-10T03:09:37.325Z,10.32
2017-09-10T03:12:05.187Z,7.55
2017-09-10T03:14:33.053Z,9.55
2017-09-10T03:17:00.880Z,8.50
2017-09-10T03:19:28.677Z,7.00
2017-09-10T03:21:56.541Z,6.47
2017-09-10T03:24:24.406Z,8.65
2017-09-10T03:26:52.270Z,6.72
2017-09-10T03:29:20.132Z,7.07
2017-09-10T03:31:47.998Z,7.22
2017-09-10T03:34:15.864Z,9.50
2017-09-10T03:36:43.726Z,7.70
2017-09-10T03:39:11.589Z,8.70
2017-09-10T03:41:39.453Z,6.97
2017-09-10T03:44:07.318Z,8.88
2017-09-10T03:46:35.182Z,6.12
2017-09-10T03:49:03.046Z,6.25
2017-09-10T03:51:30.868Z,7.22
2017-09-10T03:53:58.669Z,6.32
2017-09-10T03:56:26.534Z,6.40
2017-09-10T03:58:54.398Z,5.37
2017-09-10T04:01:22.263Z,9.32
2017-09-10T04:03:50.125Z,7.65
2017-09-10T04:06:17.988Z,6.47
2017-09-10T04:08:45.854Z,6.43
2017-09-10T04:11:13.820Z,5.93
2017-09-10T04:13:41.715Z,8.45
2017-09-10T04:16:10.368Z,6.60
2017-09-10T04:18:38.232Z,7.70
2017-09-10T04:21:06.097Z,9.73
2017-09-10T04:23:34.062Z,7.10
2017-09-10T04:26:01.926Z,5.72
2017-09-10T04:28:29.787Z,6.18
2017-09-10T04:30:57.653Z,6.35
2017-09-10T04:33:25.414Z,5.87
2017-09-10T04:35:53.278Z,9.38
2017-09-10T04:38:21.145Z,7.70
2017-09-10T04:40:49.007Z,8.55
2017-09-10T04:43:16.832Z,10.82
2017-09-10T04:45:44.632Z,7.43
2017-09-10T04:48:12.495Z,9.02
2017-09-10T04:50:40.358Z,7.28
2017-09-10T04:53:08.223Z,8.75
2017-09-10T04:55:36.189Z,8.75
2017-09-10T04:58:04.055Z,7.93
2017-09-10T05:00:31.917Z,6.35
2017-09-10T05:02:59.781Z,6.75
2017-09-10T05:05:27.645Z,6.87
2017-09-10T05:07:55.407Z,7.15
2017-09-10T05:10:23.271Z,7.03
2017-09-10T05:12:51.136Z,6.30
2017-09-10T05:15:18.997Z,6.30
2017-09-10T05:17:47.066Z,6.65
2017-09-10T05:20:14.931Z,6.78
2017-09-10T05:22:42.794Z,6.95
2017-09-10T05:25:10.658Z,6.65
2017-09-10T05:27:38.533Z,6.62
2017-09-10T05:30:07.207Z,8.20
2017-09-10T05:32:35.070Z,8.60
2017-09-10T05:35:02.932Z,6.78
2017-09-10T05:37:30.763Z,6.20
2017-09-10T05:39:58.559Z,8.48
2017-09-10T05:42:26.422Z,7.18
2017-09-10T05:44:54.288Z,7.25
2017-09-10T05:47:22.150Z,7.65
2017-09-10T05:49:49.979Z,7.60
2017-09-10T05:52:17.781Z,8.13
2017-09-10T05:54:45.641Z,6.43
2017-09-10T05:57:13.504Z,6.47
2017-09-10T05:59:41.369Z,6.65
2017-09-10T06:02:09.231Z,8.30
2017-09-10T06:04:37.096Z,6.75
2017-09-10T06:07:04.961Z,6.68
2017-09-10T06:09:32.788Z,7.57
2017-09-10T06:12:00.585Z,10.50
2017-09-10T06:14:28.449Z,7.55
2017-09-10T06:16:56.314Z,8.10
2017-09-10T06:19:24.178Z,7.32
2017-09-10T06:21:52.041Z,10.30
2017-09-10T06:24:19.906Z,6.07
2017-09-10T06:26:47.769Z,9.27
2017-09-10T06:29:15.633Z,7.00
2017-09-10T06:31:43.498Z,7.10
2017-09-10T06:34:11.359Z,7.25
2017-09-10T06:36:39.225Z,6.87
2017-09-10T06:39:07.050Z,6.37
2017-09-10T06:41:34.811Z,7.32
2017-09-10T06:44:02.715Z,6.32
2017-09-10T06:46:30.578Z,7.75
2017-09-10T06:48:58.408Z,8.32
2017-09-10T06:51:26.304Z,8.43
2017-09-10T06:53:54.171Z,10.75
2017-09-10T06:56:22.034Z,9.82
2017-09-10T06:58:49.898Z,10.45
2017-09-10T07:01:17.762Z,7.47
2017-09-10T07:03:45.587Z,9.27
2017-09-10T07:06:13.387Z,6.95
2017-09-10T07:08:41.252Z,6.95
2017-09-10T07:11:09.015Z,6.65
2017-09-10T07:13:36.878Z,6.85
2017-09-10T07:16:04.741Z,5.72
2017-09-10T07:18:32.606Z,7.10
2017-09-10T07:21:00.468Z,7.47
2017-09-10T07:23:28.332Z,5.55
2017-09-10T07:25:56.162Z,5.75
2017-09-10T07:28:24.059Z,4.15
2017-09-10T07:30:51.925Z,6.45
2017-09-10T07:33:19.788Z,5.45
2017-09-10T07:35:47.651Z,6.30
2017-09-10T07:38:15.475Z,6.45
2017-09-10T07:40:43.280Z,5.50
2017-09-10T07:43:11.141Z,7.37
2017-09-10T07:45:39.003Z,6.43
2017-09-10T07:48:06.870Z,6.97
2017-09-10T07:50:34.950Z,5.55
2017-09-10T07:53:02.763Z,6.28
2017-09-10T07:55:30.563Z,6.47
2017-09-10T07:57:58.426Z,5.10
2017-09-10T08:00:26.290Z,5.55
2017-09-10T08:02:54.154Z,5.03
2017-09-10T08:05:22.018Z,5.65
2017-09-10T08:07:49.883Z,6.82
2017-09-10T08:10:17.746Z,10.65
2017-09-10T08:12:45.571Z,7.87
2017-09-10T08:15:13.370Z,5.12
2017-09-10T08:17:41.239Z,5.28
2017-09-10T08:20:08.998Z,6.82
2017-09-10T08:22:36.862Z,8.02
2017-09-10T08:25:04.691Z,4.93
2017-09-10T08:27:32.486Z,4.90
2017-09-10T08:30:00.351Z,6.97
2017-09-10T08:32:28.214Z,6.15
2017-09-10T08:34:56.082Z,6.45
2017-09-10T08:37:23.942Z,5.57
2017-09-10T08:39:51.805Z,4.72
2017-09-10T08:42:19.670Z,4.15
2017-09-10T08:44:47.533Z,3.75
2017-09-10T08:47:15.398Z,5.57
2017-09-10T08:49:43.262Z,6.53
2017-09-10T08:52:11.024Z,4.82
2017-09-10T08:54:38.899Z,5.53
2017-09-10T08:57:06.716Z,4.87
2017-09-10T08:59:34.615Z,5.30
2017-09-10T09:02:02.479Z,5.32
2017-09-10T09:04:30.343Z,4.53
2017-09-10T09:06:58.207Z,5.68
2017-09-10T09:09:26.069Z,4.45
2017-09-10T09:11:53.942Z,4.57
2017-09-10T09:14:21.798Z,4.37
2017-09-10T09:16:49.623Z,8.23
2017-09-10T09:19:17.423Z,5.57
2017-09-10T09:21:45.287Z,8.32
2017-09-10T09:24:13.152Z,4.65
2017-09-10T09:26:41.016Z,4.47
2017-09-10T09:29:08.880Z,4.32
2017-09-10T09:31:36.706Z,4.70
2017-09-10T09:34:04.505Z,5.68
2017-09-10T09:36:32.333Z,8.38
2017-09-10T09:39:00.131Z,5.80
2017-09-10T09:41:27.993Z,4.10
2017-09-10T09:43:55.858Z,4.80
2017-09-10T09:46:23.721Z,5.82
2017-09-10T09:48:51.586Z,4.93
2017-09-10T09:51:19.449Z,5.12
2017-09-10T09:53:47.211Z,7.68
2017-09-10T09:56:15.074Z,5.35
2017-09-10T09:58:42.940Z,6.12
2017-09-10T10:01:10.804Z,4.72
2017-09-10T10:03:38.633Z,6.32
2017-09-10T10:06:06.428Z,4.55
2017-09-10T10:08:34.296Z,6.18
2017-09-10T10:11:02.157Z,5.20
2017-09-10T10:13:30.842Z,4.45
2017-09-10T10:15:58.672Z,4.85
2017-09-10T10:18:26.570Z,6.12
2017-09-10T10:20:55.665Z,5.62
2017-09-10T10:23:24.244Z,3.55
2017-09-10T10:25:52.798Z,4.10
2017-09-10T10:28:20.869Z,5.10
2017-09-10T10:30:48.715Z,4.10
2017-09-10T10:33:16.631Z,5.03
2017-09-10T10:35:45.815Z,4.43
2017-09-10T10:38:13.783Z,5.53
2017-09-10T10:40:42.567Z,4.40
2017-09-10T10:43:10.326Z,5.10
2017-09-10T10:45:39.322Z,4.43
2017-09-10T10:48:07.600Z,3.47
2017-09-10T10:50:36.273Z,5.55
2017-09-10T10:53:04.959Z,4.50
2017-09-10T10:55:32.820Z,5.37
2017-09-10T10:58:00.790Z,4.72
2017-09-10T11:00:28.861Z,5.60
2017-09-10T11:02:57.645Z,4.75
2017-09-10T11:05:25.401Z,4.62
2017-09-10T11:07:53.375Z,5.57
2017-09-10T11:10:22.694Z,4.95
2017-09-10T11:12:52.082Z,4.00
2017-09-10T11:15:20.954Z,5.25
2017-09-10T11:17:48.922Z,3.72
2017-09-10T11:20:16.783Z,4.55
2017-09-10T11:22:44.958Z,4.03
2017-09-10T11:25:12.819Z,6.00
2017-09-10T11:27:40.653Z,4.62
2017-09-10T11:30:08.596Z,4.72
2017-09-10T11:32:37.230Z,3.90
2017-09-10T11:35:05.101Z,4.20
2017-09-10T11:37:35.909Z,3.80
2017-09-10T11:40:03.794Z,5.47
2017-09-10T11:42:32.281Z,7.55
2017-09-10T11:45:01.158Z,5.00
2017-09-10T11:47:29.327Z,5.62
2017-09-10T11:49:57.299Z,5.82
2017-09-10T11:52:25.261Z,9.60
2017-09-10T11:54:54.254Z,5.68
2017-09-10T11:57:22.116Z,5.32
2017-09-10T11:59:50.140Z,7.00
2017-09-10T12:02:18.156Z,5.43
2017-09-10T12:04:46.015Z,4.70
2017-09-10T12:07:13.880Z,5.03
2017-09-10T12:09:41.745Z,7.78
2017-09-10T12:12:09.607Z,5.47
2017-09-10T12:14:37.471Z,4.97
2017-09-10T12:17:05.333Z,7.05
2017-09-10T12:19:33.198Z,5.70
2017-09-10T12:22:00.959Z,7.65
2017-09-10T12:24:28.823Z,3.97
2017-09-10T12:26:56.789Z,4.87
2017-09-10T12:29:24.614Z,5.18
2017-09-10T12:31:52.415Z,3.40
2017-09-10T12:34:20.279Z,4.65
2017-09-10T12:36:48.143Z,3.33
2017-09-10T12:39:16.009Z,4.10
2017-09-10T12:41:43.871Z,3.20
2017-09-10T12:44:11.735Z,3.65
2017-09-10T12:46:39.597Z,3.42
2017-09-10T12:49:07.462Z,4.47
2017-09-10T12:51:35.330Z,3.05
2017-09-10T12:54:03.190Z,3.30
2017-09-10T12:56:31.054Z,2.83
2017-09-10T12:58:58.917Z,3.25
2017-09-10T13:01:26.781Z,4.03
2017-09-10T13:03:54.607Z,3.30
2017-09-10T13:06:22.408Z,3.87
2017-09-10T13:08:50.375Z,3.85
2017-09-10T13:11:18.238Z,4.60
2017-09-10T13:13:46.102Z,4.35
2017-09-10T13:16:13.965Z,3.15
2017-09-10T13:18:41.828Z,3.03
2017-09-10T13:21:09.694Z,3.37
2017-09-10T13:23:37.558Z,2.80
2017-09-10T13:26:05.382Z,4.87
2017-09-10T13:28:33.183Z,3.45
2017-09-10T13:31:01.048Z,3.00
2017-09-10T13:33:28.911Z,3.08
2017-09-10T13:35:56.778Z,3.75
2017-09-10T13:38:24.605Z,4.85
2017-09-10T13:40:52.399Z,3.35
2017-09-10T13:43:20.264Z,3.25
2017-09-10T13:45:48.128Z,3.78
2017-09-10T13:48:15.991Z,3.37
2017-09-10T13:50:43.857Z,3.28
2017-09-10T13:53:11.720Z,3.10
2017-09-10T13:55:39.583Z,3.25
2017-09-10T13:58:07.448Z,7.18
2017-09-10T14:00:35.311Z,4.30
2017-09-10T14:03:03.176Z,7.22
2017-09-10T14:05:31.042Z,4.75
2017-09-10T14:07:58.902Z,3.00
2017-09-10T14:10:26.766Z,4.40
2017-09-10T14:12:54.595Z,3.28
2017-09-10T14:15:22.500Z,4.12
2017-09-10T14:17:50.359Z,3.65
2017-09-10T14:20:18.223Z,3.35
2017-09-10T14:22:46.091Z,3.20
2017-09-10T14:25:13.953Z,3.90
2017-09-10T14:27:41.814Z,4.60
2017-09-10T14:30:09.679Z,4.32
2017-09-10T14:32:37.545Z,3.00
2017-09-10T14:35:05.405Z,3.15
2017-09-10T14:37:33.269Z,4.90
2017-09-10T14:40:01.134Z,6.37
2017-09-10T14:42:28.998Z,3.80
2017-09-10T14:44:56.863Z,3.50
2017-09-10T14:47:24.726Z,3.62
2017-09-10T14:49:52.551Z,4.95
2017-09-10T14:52:20.454Z,6.50
2017-09-10T14:54:48.318Z,3.60
2017-09-10T14:57:16.182Z,4.22
2017-09-10T14:59:44.046Z,3.47
2017-09-10T15:02:11.911Z,4.43
2017-09-10T15:04:39.773Z,3.10
2017-09-10T15:07:07.638Z,3.40
2017-09-10T15:09:35.500Z,3.40
2017-09-10T15:12:03.366Z,5.03
2017-09-10T15:14:31.127Z,6.30
2017-09-10T15:16:58.993Z,5.28
2017-09-10T15:19:26.855Z,4.55
2017-09-10T15:21:54.803Z,6.87
2017-09-10T15:24:22.685Z,6.68
2017-09-10T15:26:50.507Z,5.70
2017-09-10T15:29:18.421Z,4.93
2017-09-10T15:31:46.187Z,6.22
2017-09-10T15:34:14.037Z,4.85
2017-09-10T15:36:41.901Z,6.85
2017-09-10T15:39:09.766Z,4.95
2017-09-10T15:41:37.631Z,4.87
2017-09-10T15:44:05.494Z,3.97
2017-09-10T15:46:33.358Z,5.32
2017-09-10T15:49:01.221Z,4.37
2017-09-10T15:51:29.086Z,4.53
2017-09-10T15:53:56.950Z,3.65
2017-09-10T15:56:24.814Z,4.25
2017-09-10T15:58:52.677Z,4.70
2017-09-10T16:01:20.509Z,3.95
2017-09-10T16:03:48.302Z,3.17
2017-09-10T16:06:16.218Z,3.65
2017-09-10T16:08:44.030Z,4.10
2017-09-10T16:11:11.894Z,3.80
2017-09-10T16:13:39.768Z,6.22
2017-09-10T16:16:07.621Z,5.97
2017-09-10T16:18:35.447Z,4.30
2017-09-10T16:21:03.253Z,4.50
2017-09-10T16:23:31.009Z,4.37
2017-09-10T16:25:58.872Z,4.68
2017-09-10T16:28:26.738Z,4.30
2017-09-10T16:30:54.604Z,5.15
2017-09-10T16:33:22.466Z,3.83
2017-09-10T16:35:50.329Z,5.35
2017-09-10T16:38:18.245Z,4.12
2017-09-10T16:40:46.059Z,4.45
2017-09-10T16:43:13.921Z,4.35
2017-09-10T16:45:41.784Z,4.82
2017-09-10T16:48:09.648Z,3.75
2017-09-10T16:50:37.513Z,3.92
2017-09-10T16:53:05.376Z,5.47
2017-09-10T16:55:33.241Z,6.10
2017-09-10T16:58:01.001Z,7.65
2017-09-10T17:00:28.763Z,7.15
2017-09-10T17:02:56.626Z,6.07
2017-09-10T17:05:24.456Z,6.45
2017-09-10T17:07:52.523Z,5.57
2017-09-10T17:10:20.283Z,7.47
2017-09-10T17:12:48.081Z,4.50
2017-09-10T17:15:15.907Z,6.87
2017-09-10T17:17:43.709Z,5.35
2017-09-10T17:20:11.573Z,6.22
2017-09-10T17:22:39.435Z,4.78
2017-09-10T17:25:07.299Z,5.35
2017-09-10T17:27:35.061Z,6.07
2017-09-10T17:30:02.890Z,6.10
2017-09-10T17:32:30.789Z,4.95
2017-09-10T17:34:58.653Z,5.78
2017-09-10T17:37:26.480Z,4.85
2017-09-10T17:39:54.381Z,5.05
2017-09-10T17:42:22.296Z,5.68
2017-09-10T17:44:50.210Z,6.60
2017-09-10T17:47:18.075Z,5.68
2017-09-10T17:49:45.938Z,8.77
2017-09-10T17:52:13.937Z,7.10
2017-09-10T17:54:42.902Z,5.57
2017-09-10T17:57:11.615Z,6.43
2017-09-10T17:59:39.443Z,7.65
2017-09-10T18:02:07.305Z,7.22
2017-09-10T18:04:35.857Z,6.10
2017-09-10T18:07:03.749Z,5.87
2017-09-10T18:09:31.826Z,5.60
2017-09-10T18:11:59.713Z,6.53
2017-09-10T18:14:28.266Z,8.88
2017-09-10T18:16:56.232Z,6.50
2017-09-10T18:19:24.100Z,7.37
2017-09-10T18:21:51.959Z,8.25
2017-09-10T18:24:19.721Z,6.80
2017-09-10T18:26:47.584Z,7.32
2017-09-10T18:29:15.458Z,6.12
2017-09-10T18:31:43.423Z,5.95
2017-09-10T18:34:11.278Z,6.80
2017-09-10T18:36:39.142Z,6.53
2017-09-10T18:39:07.007Z,7.53
2017-09-10T18:41:34.869Z,9.85
2017-09-10T18:44:02.735Z,26.98
2017-09-10T18:46:30.598Z,24.92
2017-09-10T18:48:58.565Z,19.20
2017-09-10T18:51:26.530Z,17.00
2017-09-10T18:53:54.395Z,13.52
2017-09-10T18:56:22.258Z,15.77
2017-09-10T18:58:50.121Z,13.95
2017-09-10T19:01:17.985Z,14.00
2017-09-10T19:03:45.863Z,13.73
2017-09-10T19:06:13.713Z,16.17
2017-09-10T19:08:41.576Z,12.43
2017-09-10T19:11:09.442Z,10.63
2017-09-10T19:13:37.305Z,11.12
2017-09-10T19:16:06.068Z,11.00
2017-09-10T19:18:33.957Z,11.60
2017-09-10T19:21:01.822Z,13.98
2017-09-10T19:23:29.890Z,12.93
2017-09-10T19:25:57.752Z,14.02
2017-09-10T19:28:25.615Z,14.38
2017-09-10T19:30:53.480Z,15.73
2017-09-10T19:33:21.350Z,19.65
2017-09-10T19:35:49.209Z,16.35
2017-09-10T19:38:17.103Z,14.23
2017-09-10T19:40:45.779Z,15.55
2017-09-10T19:43:14.231Z,26.10
2017-09-10T19:45:42.097Z,11.88
2017-09-10T19:48:09.960Z,15.73
2017-09-10T19:50:37.826Z,17.95
2017-09-10T19:53:05.688Z,14.27
2017-09-10T19:55:33.654Z,16.48
2017-09-10T19:58:01.518Z,15.40
2017-09-10T20:00:29.388Z,16.35
2017-09-10T20:02:57.246Z,15.88
2017-09-10T20:05:25.112Z,14.35
2017-09-10T20:07:52.973Z,13.80
2017-09-10T20:10:20.839Z,15.43
2017-09-10T20:12:49.214Z,14.25
2017-09-10T20:15:16.974Z,14.75
2017-09-10T20:17:44.839Z,15.35
2017-09-10T20:20:12.703Z,13.48
2017-09-10T20:22:40.436Z,14.52
2017-09-10T20:25:08.330Z,12.93
2017-09-10T20:27:36.193Z,10.82
2017-09-10T20:30:04.057Z,12.40
2017-09-10T20:32:31.919Z,12.10
2017-09-10T20:34:59.799Z,11.75
2017-09-10T20:37:27.647Z,11.57
2017-09-10T20:39:55.512Z,13.68
2017-09-10T20:42:23.375Z,10.60
2017-09-10T20:44:51.238Z,9.70
2017-09-10T20:47:19.105Z,10.10
2017-09-10T20:49:46.967Z,10.40
2017-09-10T20:52:14.831Z,12.85
2017-09-10T20:54:42.695Z,14.73
2017-09-10T20:57:10.524Z,11.43
2017-09-10T20:59:38.322Z,11.73
2017-09-10T21:02:06.188Z,12.48
2017-09-10T21:04:34.049Z,12.68
2017-09-10T21:07:02.198Z,14.85
2017-09-10T21:09:30.083Z,16.20
2017-09-10T21:11:57.948Z,16.12
2017-09-10T21:14:25.811Z,19.73
2017-09-10T21:16:53.682Z,18.73
2017-09-10T21:19:21.539Z,17.45
2017-09-10T21:21:49.405Z,18.55
2017-09-10T21:24:17.166Z,20.90
2017-09-10T21:26:45.029Z,21.58
2017-09-10T21:29:12.789Z,22.17
2017-09-10T21:31:40.655Z,20.70
2017-09-10T21:34:08.517Z,22.85
2017-09-10T21:36:36.348Z,26.80
2017-09-10T21:39:04.247Z,23.15
2017-09-10T21:41:32.109Z,25.42
2017-09-10T21:43:59.974Z,25.80
2017-09-10T21:46:27.837Z,20.15
2017-09-10T21:48:55.702Z,22.27
2017-09-10T21:51:23.565Z,26.05
2017-09-10T21:53:51.430Z,24.42
2017-09-10T21:56:19.294Z,22.15
2017-09-10T21:58:47.158Z,21.17
2017-09-10T22:01:14.919Z,22.25
2017-09-10T22:03:42.782Z,20.85
2017-09-10T22:06:10.647Z,20.70
2017-09-10T22:08:38.513Z,18.67
2017-09-10T22:11:06.347Z,16.87
2017-09-10T22:13:34.137Z,17.08
2017-09-10T22:16:01.999Z,14.73
2017-09-10T22:18:29.864Z,16.05
2017-09-10T22:20:57.728Z,15.32
2017-09-10T22:23:25.591Z,13.73
2017-09-10T22:25:53.456Z,13.43
2017-09-10T22:28:22.198Z,14.73
2017-09-10T22:30:50.309Z,14.57
2017-09-10T22:33:18.890Z,13.80
2017-09-10T22:35:46.752Z,13.75
2017-09-10T22:38:14.617Z,12.98
2017-09-10T22:40:42.584Z,11.38
2017-09-10T22:43:10.449Z,14.27
2017-09-10T22:45:38.279Z,13.57
2017-09-10T22:48:06.176Z,12.35
2017-09-10T22:50:34.039Z,12.05
2017-09-10T22:53:01.905Z,12.23
2017-09-10T22:55:29.768Z,11.48
2017-09-10T22:57:57.632Z,12.52
2017-09-10T23:00:25.496Z,13.57
2017-09-10T23:02:53.359Z,13.38
2017-09-10T23:05:21.224Z,13.32
2017-09-10T23:07:49.087Z,12.93
2017-09-10T23:10:16.850Z,14.43
2017-09-10T23:12:44.713Z,13.48
2017-09-10T23:15:12.577Z,13.68
2017-09-10T23:17:40.441Z,14.75
2017-09-10T23:20:08.268Z,13.18
2017-09-10T23:22:36.067Z,13.23
2017-09-10T23:25:03.931Z,13.52
2017-09-10T23:27:31.795Z,13.50
2017-09-10T23:29:59.662Z,15.25
2017-09-10T23:32:27.522Z,18.48
2017-09-10T23:34:55.385Z,14.02
2017-09-10T23:37:23.250Z,15.30
2017-09-10T23:39:51.112Z,12.63
2017-09-10T23:42:18.978Z,15.80
2017-09-10T23:44:46.841Z,11.55
2017-09-10T23:47:14.705Z,11.55
2017-09-10T23:49:42.569Z,11.95
